Time;durP1;ratioP1;P1;durP2;ratioP2;P2;SDS_P1;SDS_P2;PMS_P1;PMS_P2;Temp;Humidity;BMP_temperature;BMP_pressure;BME280_temperature;BME280_humidity;BME280_pressure;Samples;Min_cycle;Max_cycle;Signal;HPM_P1;HPM_P2
2022/04/19 00:00:52;;;;;;;5.33;4.93;;;;;;;8.47;60.54;100259.44;5053346;28;20236;-75
2022/04/19 00:03:19;;;;;;;6.73;5.20;;;;;;;8.34;61.72;100245.69;5053036;28;20683;-75
2022/04/19 00:05:46;;;;;;;5.40;4.90;;;;;;;8.29;61.71;100218.91;5052876;28;20713;-75
2022/04/19 00:08:15;;;;;;;4.97;4.57;;;;;;;8.19;62.78;100205.16;5052702;28;20209;-75
2022/04/19 00:10:42;;;;;;;5.10;4.70;;;;;;;8.18;61.97;100194.78;5043508;28;20216;-75
2022/04/19 00:13:13;;;;;;;5.23;4.83;;;;;;;7.96;63.12;100172.50;5052985;28;20213;-75
2022/04/19 00:15:40;;;;;;;12.57;5.40;;;;;;;8.03;63.38;100160.31;5052753;28;20220;-75
2022/04/19 00:18:08;;;;;;;6.43;5.83;;;;;;;7.92;64.15;100144.00;5052691;28;20678;-75
2022/04/19 00:20:35;;;;;;;5.83;5.40;;;;;;;7.94;64.98;100119.69;5052608;28;20229;-75
2022/04/19 00:23:03;;;;;;;5.73;5.23;;;;;;;7.98;64.84;100104.06;5053173;28;20208;-75
2022/04/19 00:25:29;;;;;;;7.27;6.20;;;;;;;7.90;64.64;100097.22;5052653;28;20292;-75
2022/04/19 00:27:56;;;;;;;6.63;5.77;;;;;;;7.89;65.72;100084.28;5052765;28;20218;-75
2022/04/19 00:30:24;;;;;;;6.20;5.70;;;;;;;7.94;64.80;100088.50;5052660;28;20275;-75
2022/04/19 00:32:57;;;;;;;6.60;6.10;;;;;;;8.04;64.71;100093.59;5167279;27;20516;-75
2022/04/19 00:35:23;;;;;;;8.30;5.97;;;;;;;8.13;64.32;100106.47;5151121;27;20202;-76
2022/04/19 00:37:50;;;;;;;7.10;6.40;;;;;;;8.18;63.86;100124.59;5150852;27;20208;-75
2022/04/19 00:40:17;;;;;;;6.90;6.20;;;;;;;8.12;63.34;100128.13;5150803;27;20229;-75
2022/04/19 00:42:43;;;;;;;7.20;6.60;;;;;;;8.09;63.54;100122.97;5150779;27;20202;-75
2022/04/19 00:45:10;;;;;;;6.63;6.10;;;;;;;8.04;64.24;100117.81;5150467;27;20210;-74
2022/04/19 00:47:38;;;;;;;6.77;6.17;;;;;;;7.95;63.68;100116.22;5150510;27;20198;-75
2022/04/19 00:50:07;;;;;;;6.50;6.00;;;;;;;7.92;63.57;100112.81;5150684;27;20232;-75
2022/04/19 00:52:36;;;;;;;6.50;5.97;;;;;;;7.99;62.98;100126.56;5150589;27;20267;-75
2022/04/19 00:55:03;;;;;;;6.00;5.50;;;;;;;7.91;63.56;100132.75;5150242;27;20202;-75
2022/04/19 00:57:31;;;;;;;6.80;6.20;;;;;;;7.98;62.52;100156.03;5150092;27;20671;-75
2022/04/19 00:59:58;;;;;;;6.50;6.00;;;;;;;8.01;63.05;100158.59;5150365;27;20245;-75
2022/04/19 01:02:26;;;;;;;7.03;6.43;;;;;;;8.02;62.48;100163.78;5150111;27;20734;-75
2022/04/19 01:04:55;;;;;;;6.77;6.17;;;;;;;8.06;61.97;100168.06;5150084;27;20205;-75
2022/04/19 01:07:23;;;;;;;7.93;5.90;;;;;;;8.09;61.88;100175.81;5147465;27;20550;-75
2022/04/19 01:09:50;;;;;;;7.43;6.73;;;;;;;8.10;62.07;100172.31;5149928;27;20255;-75
2022/04/19 01:15:03;;;;;;;6.47;5.83;;;;;;;8.05;62.36;100171.56;5149910;27;20224;-75
2022/04/19 01:17:30;;;;;;;7.70;6.07;;;;;;;8.01;62.48;100167.28;5150200;27;20620;-75
2022/04/19 01:19:57;;;;;;;7.63;5.60;;;;;;;7.92;63.86;100152.63;5149917;27;20213;-75
2022/04/19 01:22:24;;;;;;;6.57;5.97;;;;;;;7.71;63.95;100152.91;5150026;27;20746;-75
2022/04/19 01:24:51;;;;;;;6.20;5.60;;;;;;;7.62;64.64;100145.22;5149931;27;20247;-75
2022/04/19 01:27:18;;;;;;;6.40;5.80;;;;;;;7.52;64.29;100128.88;5149776;27;20251;-75
2022/04/19 01:29:45;;;;;;;6.27;5.70;;;;;;;7.53;64.43;100113.28;5149614;27;20703;-75
2022/04/19 01:32:13;;;;;;;6.00;5.50;;;;;;;7.53;64.85;100117.59;5149775;27;20254;-75
2022/04/19 01:34:39;;;;;;;6.03;5.53;;;;;;;7.51;64.24;100130.63;5149665;27;20202;-75
2022/04/19 01:37:06;;;;;;;6.10;5.60;;;;;;;7.58;63.75;100141.81;5149605;27;20206;-75
2022/04/19 01:42:18;;;;;;;6.57;6.07;;;;;;;7.61;63.25;100153.88;5147514;27;20557;-75
2022/04/19 01:44:44;;;;;;;5.70;5.20;;;;;;;7.62;63.33;100166.00;5135317;27;20207;-75
2022/04/19 01:47:10;;;;;;;5.47;4.97;;;;;;;7.67;62.59;100174.59;5135728;27;20199;-75
2022/04/19 01:49:37;;;;;;;6.07;5.40;;;;;;;7.66;62.38;100180.69;5135611;27;20725;-75
2022/04/19 01:52:08;;;;;;;6.40;5.80;;;;;;;7.09;63.84;100202.00;5135371;27;20283;-75
2022/04/19 01:54:35;;;;;;;6.70;6.10;;;;;;;6.51;66.00;100147.09;5135191;27;20203;-75
2022/04/19 01:57:02;;;;;;;7.50;6.17;;;;;;;6.32;66.94;100104.91;5135682;27;20206;-75
2022/04/19 01:59:28;;;;;;;6.97;6.43;;;;;;;6.15;67.68;100062.69;5135661;27;20203;-75
2022/04/19 02:01:55;;;;;;;6.77;6.20;;;;;;;6.30;67.68;100023.72;5135241;27;20223;-75
2022/04/19 02:04:21;;;;;;;7.27;6.67;;;;;;;6.48;67.16;100027.88;5135243;27;20255;-75
2022/04/19 02:06:47;;;;;;;7.43;6.83;;;;;;;6.61;67.39;100035.53;5135450;27;20206;-75
2022/04/19 02:09:14;;;;;;;6.43;5.83;;;;;;;6.72;66.38;100046.69;5132508;27;20210;-75
2022/04/19 02:11:42;;;;;;;6.57;6.07;;;;;;;6.83;66.44;100059.53;5134821;27;20748;-75
2022/04/19 02:14:09;;;;;;;6.87;6.27;;;;;;;6.81;66.58;100051.75;5134969;27;20251;-75
2022/04/19 02:16:37;;;;;;;6.60;6.10;;;;;;;6.92;66.11;100062.06;5134992;27;20293;-75
2022/04/19 02:19:03;;;;;;;9.97;6.50;;;;;;;6.95;65.56;100077.56;5135358;27;20287;-75
2022/04/19 02:21:30;;;;;;;7.73;7.03;;;;;;;6.98;66.24;100072.38;5134825;27;20344;-75
2022/04/19 02:23:56;;;;;;;6.50;5.90;;;;;;;7.04;66.21;100066.25;5134714;27;20211;-75
2022/04/19 02:26:24;;;;;;;7.40;6.80;;;;;;;7.02;65.84;100081.84;5135056;27;20263;-75
2022/04/19 02:28:51;;;;;;;6.77;6.20;;;;;;;7.07;65.16;100098.19;5134318;27;20217;-75
2022/04/19 02:31:18;;;;;;;6.10;5.60;;;;;;;7.09;65.33;100100.78;5134343;27;20777;-75
2022/04/19 02:33:44;;;;;;;7.27;6.70;;;;;;;7.13;65.05;100115.44;5134346;27;20683;-75
2022/04/19 02:36:10;;;;;;;6.77;6.17;;;;;;;7.09;65.32;100101.63;5134561;27;20256;-75
2022/04/19 02:38:37;;;;;;;6.77;6.27;;;;;;;7.12;65.29;100093.84;5134815;27;20203;-75
2022/04/19 02:41:04;;;;;;;7.60;6.33;;;;;;;7.03;66.32;100099.09;5134302;27;20798;-75
2022/04/19 02:43:31;;;;;;;7.07;6.47;;;;;;;6.83;66.29;100086.34;5134770;27;20213;-74
2022/04/19 02:45:59;;;;;;;7.47;6.87;;;;;;;6.77;65.80;100101.94;5134404;27;20601;-75
2022/04/19 02:48:28;;;;;;;7.57;6.77;;;;;;;6.84;65.49;100100.16;5134635;27;20203;-75
2022/04/19 02:50:54;;;;;;;6.33;5.83;;;;;;;6.88;65.37;100107.91;5134544;27;20566;-75
2022/04/19 02:53:21;;;;;;;7.20;6.60;;;;;;;6.90;65.40;100106.16;5134100;27;20229;-75
2022/04/19 02:55:48;;;;;;;6.23;5.73;;;;;;;6.93;65.13;100108.72;5133125;27;20699;-75
2022/04/19 02:58:14;;;;;;;7.47;6.87;;;;;;;6.64;66.29;100109.00;5131141;27;20576;-75
2022/04/19 03:00:41;;;;;;;6.07;5.47;;;;;;;6.57;66.45;100074.44;5125883;27;20222;-75
2022/04/19 03:03:09;;;;;;;6.90;6.23;;;;;;;6.54;67.05;100064.13;5134309;27;20202;-75
2022/04/19 03:05:38;;;;;;;6.50;6.00;;;;;;;6.62;66.95;100058.00;5133948;27;20205;-75
2022/04/19 03:08:05;;;;;;;6.50;5.90;;;;;;;6.66;67.47;100052.78;5134111;27;20203;-75
2022/04/19 03:10:31;;;;;;;7.07;6.47;;;;;;;6.69;67.05;100050.16;5134144;27;20639;-75
2022/04/19 03:12:58;;;;;;;7.43;6.60;;;;;;;6.71;67.12;100056.19;5133691;27;20634;-75
2022/04/19 03:15:24;;;;;;;7.00;6.40;;;;;;;6.56;67.92;100051.13;5133641;27;20207;-75
2022/04/19 03:17:50;;;;;;;7.20;6.60;;;;;;;6.61;66.62;100061.47;5129277;27;20255;-75
2022/04/19 03:20:18;;;;;;;6.97;6.37;;;;;;;6.50;67.76;100065.03;5134105;27;20647;-75
2022/04/19 03:28:12;;;;;;;6.30;5.70;;;;;;;6.31;68.97;99999.50;5133489;27;20189;-75
2022/04/19 03:30:39;;;;;;;6.47;5.97;;;;;;;6.22;69.48;99999.56;5133494;27;20226;-75
2022/04/19 03:33:06;;;;;;;6.37;5.87;;;;;;;6.25;69.45;99994.38;5133571;27;20233;-75
2022/04/19 03:35:36;;;;;;;6.03;5.53;;;;;;;6.22;69.66;99986.59;5133596;27;20198;-75
2022/04/19 03:38:03;;;;;;;6.70;6.10;;;;;;;6.24;69.56;99984.84;5133329;27;20206;-75
2022/04/19 03:40:30;;;;;;;6.67;6.10;;;;;;;6.23;69.94;99982.31;5133895;27;20272;-75
2022/04/19 03:42:56;;;;;;;6.67;6.07;;;;;;;6.27;69.44;99996.97;5133971;27;20246;-75
2022/04/19 03:45:23;;;;;;;6.50;5.90;;;;;;;6.26;69.36;100001.25;5133609;27;20203;-75
2022/04/19 03:47:49;;;;;;;7.60;5.93;;;;;;;6.27;70.09;99996.97;5133081;27;20683;-75
2022/04/19 03:50:17;;;;;;;6.20;5.70;;;;;;;6.25;69.84;100009.06;5133273;27;20225;-75
2022/04/19 03:52:45;;;;;;;6.63;6.13;;;;;;;6.21;70.24;99999.59;5133068;27;20218;-75
2022/04/19 03:55:11;;;;;;;7.73;7.13;;;;;;;6.18;70.13;100000.47;5133163;27;20198;-75
2022/04/19 03:57:38;;;;;;;6.83;6.23;;;;;;;6.12;70.58;99995.34;5133405;27;20264;-75
2022/04/19 04:00:06;;;;;;;7.47;6.83;;;;;;;6.16;70.66;99992.72;5132966;27;20274;-75
2022/04/19 04:02:33;;;;;;;8.50;7.80;;;;;;;6.06;70.57;99987.59;5126654;27;20251;-75
2022/04/19 04:04:59;;;;;;;8.83;8.03;;;;;;;6.06;71.07;99985.03;5132841;27;20205;-75
2022/04/19 04:07:27;;;;;;;8.83;8.10;;;;;;;6.04;70.99;99982.44;5132966;27;20202;-75
2022/04/19 04:09:55;;;;;;;7.97;7.27;;;;;;;6.07;70.40;99994.53;5132875;27;20199;-75
2022/04/19 04:12:22;;;;;;;8.23;7.53;;;;;;;5.97;70.75;100004.09;5133119;27;20253;-75
2022/04/19 04:14:48;;;;;;;9.60;7.77;;;;;;;6.03;71.02;99996.28;5132593;27;20671;-75
2022/04/19 04:17:15;;;;;;;8.63;7.87;;;;;;;6.05;70.45;100006.63;5133215;27;20205;-75
2022/04/19 04:19:43;;;;;;;7.43;6.83;;;;;;;6.07;70.31;100010.94;5132833;27;20631;-75
2022/04/19 04:22:09;;;;;;;9.17;8.37;;;;;;;6.02;70.13;100019.59;5133243;27;20202;-75
2022/04/19 04:24:36;;;;;;;8.73;8.00;;;;;;;5.93;71.01;100013.59;5132276;27;20232;-75
2022/04/19 04:27:04;;;;;;;8.63;7.83;;;;;;;5.99;71.17;100017.91;5143101;27;20275;-75
2022/04/19 04:29:31;;;;;;;8.57;7.67;;;;;;;5.99;70.91;100001.50;5141005;27;20201;-75
2022/04/19 04:31:57;;;;;;;8.20;7.43;;;;;;;5.97;70.87;100009.28;5138580;27;20230;-75
2022/04/19 04:34:30;;;;;;;9.23;8.43;;;;;;;5.87;71.57;100000.69;5140679;27;20220;-75
2022/04/19 04:36:56;;;;;;;8.50;7.70;;;;;;;5.88;71.81;99997.19;5140928;27;20601;-74
2022/04/19 04:39:23;;;;;;;8.03;7.23;;;;;;;5.93;71.57;99987.69;5153291;27;20742;-75
2022/04/19 04:41:49;;;;;;;8.00;7.30;;;;;;;5.93;71.97;100000.63;5153662;27;20232;-76
2022/04/19 04:44:17;;;;;;;8.63;7.67;;;;;;;5.82;71.92;100010.19;5153094;27;20221;-74
2022/04/19 04:49:39;;;;;;;7.80;7.10;;;;;;;5.85;71.36;99999.84;5152851;27;20250;-75
2022/04/19 04:52:07;;;;;;;9.37;7.10;;;;;;;5.78;72.00;100001.56;5153111;27;20213;-75
2022/04/19 04:54:34;;;;;;;8.70;7.80;;;;;;;5.75;72.26;99999.03;5153370;27;20209;-75
2022/04/19 04:57:00;;;;;;;7.80;7.20;;;;;;;5.81;71.45;100005.03;5153337;27;20254;-75
2022/04/19 04:59:29;;;;;;;8.10;7.30;;;;;;;5.74;72.21;100005.06;5153588;27;20206;-75
2022/04/19 05:01:55;;;;;;;7.90;7.20;;;;;;;5.78;71.68;100008.50;5150333;27;20229;-75
2022/04/19 05:04:22;;;;;;;8.17;7.47;;;;;;;5.74;72.26;100011.97;5132043;28;20202;-75
2022/04/19 05:06:48;;;;;;;8.13;7.43;;;;;;;5.77;71.80;100018.00;5132333;28;20668;-75
2022/04/19 05:09:14;;;;;;;9.13;8.23;;;;;;;5.84;71.86;100021.41;5132617;28;20247;-75
2022/04/19 05:11:41;;;;;;;7.97;7.27;;;;;;;5.82;71.90;100022.28;5132523;27;20223;-75
2022/04/19 05:14:08;;;;;;;8.47;7.37;;;;;;;5.80;72.10;100024.88;5131855;28;20226;-75
2022/04/19 05:16:36;;;;;;;11.43;7.43;;;;;;;5.84;71.86;100029.16;5132416;28;20205;-74
2022/04/19 05:19:03;;;;;;;8.67;7.83;;;;;;;5.83;71.88;100027.47;5134778;27;20210;-75
2022/04/19 05:21:30;;;;;;;8.60;7.73;;;;;;;5.80;72.01;100029.22;5136018;27;20271;-75
2022/04/19 05:23:56;;;;;;;9.03;8.20;;;;;;;5.77;72.47;100024.91;5136251;27;20203;-75
2022/04/19 05:26:24;;;;;;;8.57;7.67;;;;;;;5.85;72.40;100025.72;5135769;27;20206;-75
2022/04/19 05:28:51;;;;;;;7.17;6.50;;;;;;;5.91;72.04;100035.19;5136049;27;20590;-74
2022/04/19 05:31:18;;;;;;;8.50;7.57;;;;;;;6.00;71.88;100034.28;5134325;27;20498;-74
2022/04/19 05:33:45;;;;;;;7.70;7.10;;;;;;;6.01;71.90;100038.63;5129783;27;20219;-74
2022/04/19 05:36:13;;;;;;;7.73;7.07;;;;;;;6.07;71.31;100041.16;5135760;27;20199;-74
2022/04/19 05:38:39;;;;;;;7.60;6.90;;;;;;;6.11;71.50;100054.06;5135726;27;20202;-74
2022/04/19 05:41:06;;;;;;;8.07;7.27;;;;;;;6.16;71.80;100052.31;5135861;27;20230;-74
2022/04/19 05:43:32;;;;;;;8.47;7.70;;;;;;;6.19;71.29;100056.63;5135355;27;20205;-74
2022/04/19 05:45:58;;;;;;;7.57;6.97;;;;;;;6.25;71.71;100055.72;5135565;27;20211;-74
2022/04/19 05:48:25;;;;;;;7.40;6.80;;;;;;;6.27;72.10;100041.00;5135290;27;20230;-74
2022/04/19 05:50:53;;;;;;;7.83;7.13;;;;;;;6.22;72.25;100038.44;5135679;27;20275;-74
2022/04/19 05:53:20;;;;;;;8.50;7.80;;;;;;;6.26;72.06;100029.75;5135552;27;20223;-74
2022/04/19 05:55:46;;;;;;;8.50;7.60;;;;;;;6.23;72.13;100035.00;5135399;27;20209;-75
2022/04/19 05:58:13;;;;;;;8.90;8.17;;;;;;;6.38;70.85;100057.31;5135158;27;20205;-74
2022/04/19 06:00:40;;;;;;;8.57;7.87;;;;;;;6.50;71.06;100083.19;5135227;27;20276;-75
2022/04/19 06:05:52;;;;;;;8.90;8.10;;;;;;;6.66;69.94;100114.16;5142869;27;20662;-75
2022/04/19 06:08:18;;;;;;;7.40;6.73;;;;;;;6.69;69.42;100116.72;5144132;27;20247;-75
2022/04/19 06:10:45;;;;;;;7.37;6.73;;;;;;;6.73;68.65;100144.34;5155791;27;20222;-75
2022/04/19 06:13:11;;;;;;;7.17;6.47;;;;;;;6.80;67.26;100171.09;5156090;27;20229;-75
2022/04/19 06:15:38;;;;;;;6.93;6.33;;;;;;;6.87;67.58;100203.91;5155621;27;20667;-73
2022/04/19 06:18:05;;;;;;;6.67;6.17;;;;;;;6.93;67.03;100211.66;5155813;27;20205;-73
2022/04/19 06:20:31;;;;;;;6.83;6.23;;;;;;;6.96;66.50;100212.50;5155916;27;20221;-72
2022/04/19 06:22:59;;;;;;;9.03;6.33;;;;;;;7.01;66.39;100222.81;5155943;27;20664;-72
2022/04/19 06:25:25;;;;;;;6.47;5.97;;;;;;;7.07;66.22;100224.50;5155370;27;20264;-72
2022/04/19 06:27:56;;;;;;;6.20;5.60;;;;;;;7.08;66.83;100234.03;5155770;27;20210;-72
2022/04/19 06:30:24;;;;;;;6.13;5.63;;;;;;;7.08;65.73;100234.91;5155930;27;20230;-72
2022/04/19 06:32:50;;;;;;;5.90;5.40;;;;;;;7.15;65.37;100252.16;5146295;27;20221;-72
2022/04/19 06:35:17;;;;;;;6.57;5.97;;;;;;;7.22;64.93;100272.88;5142746;27;20192;-72
2022/04/19 06:37:43;;;;;;;6.03;5.53;;;;;;;7.26;63.36;100295.34;5145305;27;20191;-72
2022/04/19 06:40:13;;;;;;;6.80;5.20;;;;;;;7.28;64.80;100302.22;5143699;27;20364;-72
2022/04/19 06:42:39;;;;;;;7.47;5.30;;;;;;;7.32;63.79;100303.91;5136640;27;20240;-73
2022/04/19 06:45:07;;;;;;;5.57;4.87;;;;;;;7.42;63.92;100314.25;5134698;27;20285;-73
2022/04/19 06:47:34;;;;;;;5.23;4.80;;;;;;;7.48;62.83;100329.78;5134410;27;20562;-73
2022/04/19 06:50:02;;;;;;;5.47;5.07;;;;;;;7.49;63.03;100345.34;5134561;27;20233;-73
2022/04/19 06:52:29;;;;;;;5.23;4.77;;;;;;;7.52;61.74;100355.69;5134538;27;20214;-73
2022/04/19 06:54:56;;;;;;;5.37;4.97;;;;;;;7.58;62.28;100375.56;5133865;27;20206;-73
2022/04/19 06:57:24;;;;;;;4.70;4.30;;;;;;;7.60;62.06;100379.03;5134625;27;20266;-73
2022/04/19 06:59:50;;;;;;;5.17;4.60;;;;;;;7.59;61.39;100392.91;5134570;27;20619;-73
2022/04/19 07:02:17;;;;;;;4.70;4.23;;;;;;;7.68;61.10;100404.94;5134122;27;20217;-73
2022/04/19 07:04:43;;;;;;;7.60;4.73;;;;;;;7.71;60.01;100428.28;5133934;27;20194;-73
2022/04/19 07:07:10;;;;;;;5.03;4.63;;;;;;;7.73;60.42;100440.41;5134019;27;20212;-73
2022/04/19 07:09:37;;;;;;;5.00;4.40;;;;;;;7.78;60.83;100442.13;5133937;27;20202;-73
2022/04/19 07:12:04;;;;;;;4.43;4.13;;;;;;;7.84;59.80;100429.06;5134064;27;20226;-73
2022/04/19 07:14:31;;;;;;;4.83;4.27;;;;;;;7.89;59.92;100446.34;5133778;27;20271;-73
2022/04/19 07:16:58;;;;;;;4.70;4.40;;;;;;;7.91;59.51;100447.22;5142631;27;20216;-74
2022/04/19 07:19:24;;;;;;;4.77;4.37;;;;;;;7.99;58.13;100478.34;5145084;27;20231;-73
2022/04/19 07:27:20;;;;;;;5.30;4.80;;;;;;;7.99;60.22;100491.34;5143359;27;20327;-73
2022/04/19 07:29:48;;;;;;;4.83;4.43;;;;;;;7.97;59.83;100469.69;5123165;27;20209;-73
2022/04/19 07:32:15;;;;;;;4.57;4.27;;;;;;;7.96;59.56;100471.41;5123434;27;20244;-73
2022/04/19 07:34:41;;;;;;;4.93;4.43;;;;;;;7.94;59.81;100486.16;5135261;27;20221;-73
2022/04/19 07:37:07;;;;;;;5.27;4.87;;;;;;;7.99;59.70;100480.94;5144076;27;20262;-73
2022/04/19 07:39:34;;;;;;;5.50;5.00;;;;;;;8.01;59.47;100476.59;5139547;27;20202;-72
2022/04/19 07:42:01;;;;;;;4.57;4.17;;;;;;;8.05;60.07;100469.63;5132452;27;20281;-72
2022/04/19 07:44:29;;;;;;;6.13;4.80;;;;;;;8.09;58.96;100479.13;5133850;27;20201;-72
2022/04/19 07:46:57;;;;;;;5.30;4.83;;;;;;;8.08;60.93;100485.19;5154167;27;20205;-72
2022/04/19 07:49:23;;;;;;;6.67;4.33;;;;;;;8.13;59.95;100462.63;5154435;27;20258;-72
2022/04/19 07:51:50;;;;;;;5.23;4.83;;;;;;;8.23;59.25;100479.88;5154064;27;20235;-72
2022/04/19 07:54:17;;;;;;;4.43;4.03;;;;;;;8.35;58.54;100495.34;5153791;27;20226;-72
2022/04/19 07:56:43;;;;;;;4.80;4.40;;;;;;;8.43;56.96;100544.75;5154233;27;20205;-72
2022/04/19 07:59:09;;;;;;;3.57;3.27;;;;;;;8.47;55.63;100564.66;5153741;27;20205;-72
2022/04/19 08:01:36;;;;;;;5.33;3.97;;;;;;;8.60;56.23;100587.97;5154226;27;20230;-72
2022/04/19 08:04:04;;;;;;;4.30;4.00;;;;;;;8.68;56.02;100599.16;5127171;27;20746;-72
2022/04/19 08:06:30;;;;;;;3.90;3.60;;;;;;;8.72;55.46;100593.94;5133025;27;20674;-72
2022/04/19 08:08:57;;;;;;;6.07;3.90;;;;;;;8.79;54.45;100604.28;5133388;27;20285;-73
2022/04/19 08:11:23;;;;;;;2.70;2.50;;;;;;;8.82;51.33;100665.00;5132882;27;20711;-72
2022/04/19 08:13:50;;;;;;;5.97;2.70;;;;;;;8.84;51.45;100750.88;5132634;27;20222;-72
2022/04/19 08:16:16;;;;;;;2.80;2.40;;;;;;;8.88;50.52;100766.47;5132914;27;20210;-72
2022/04/19 08:18:43;;;;;;;3.00;2.70;;;;;;;8.96;50.99;100792.47;5133104;27;20206;-72
2022/04/19 08:21:12;;;;;;;2.90;2.60;;;;;;;9.05;50.79;100799.34;5133010;27;20227;-72
2022/04/19 08:23:38;;;;;;;3.10;2.90;;;;;;;9.00;50.96;100791.56;5132676;27;20310;-72
2022/04/19 08:26:04;;;;;;;2.80;2.60;;;;;;;9.10;50.87;100790.63;5132580;27;20202;-73
2022/04/19 08:28:32;;;;;;;3.13;2.80;;;;;;;9.19;50.27;100787.06;5132352;27;20202;-72
2022/04/19 08:30:59;;;;;;;3.83;3.53;;;;;;;9.28;49.54;100820.88;5132628;27;20581;-72
2022/04/19 08:33:25;;;;;;;4.03;2.97;;;;;;;9.38;49.46;100836.44;5126849;28;20585;-72
2022/04/19 08:35:51;;;;;;;3.37;3.07;;;;;;;9.45;49.05;100836.34;5132097;28;20194;-72
2022/04/19 08:38:19;;;;;;;2.20;2.00;;;;;;;9.56;48.13;100866.69;5132754;27;20329;-72
2022/04/19 08:40:48;;;;;;;3.33;2.40;;;;;;;9.59;47.78;100890.97;5132274;28;20275;-73
2022/04/19 08:43:14;;;;;;;2.23;2.03;;;;;;;9.68;46.30;100940.44;5132788;28;20211;-72
2022/04/19 08:45:40;;;;;;;2.77;2.57;;;;;;;9.69;47.61;100950.00;5132464;28;20198;-73
2022/04/19 08:48:10;;;;;;;3.67;2.70;;;;;;;9.72;47.75;100954.31;5132715;27;20198;-72
2022/04/19 08:50:37;;;;;;;2.80;2.60;;;;;;;9.73;48.49;100903.91;5132470;28;20318;-73
2022/04/19 08:58:34;;;;;;;3.47;2.70;;;;;;;9.90;45.70;100950.72;5136989;27;20192;-72
2022/04/19 09:01:00;;;;;;;3.43;2.50;;;;;;;9.97;47.01;100961.94;5136372;27;20275;-73
2022/04/19 09:03:27;;;;;;;2.80;2.60;;;;;;;10.08;48.29;100949.69;5136366;27;20198;-73
2022/04/19 09:05:54;;;;;;;5.00;2.97;;;;;;;10.21;48.84;100851.28;5136068;27;20230;-73
2022/04/19 09:08:21;;;;;;;3.20;2.90;;;;;;;10.30;47.71;100901.66;5136340;27;20663;-72
2022/04/19 09:10:51;;;;;;;2.80;2.60;;;;;;;10.35;46.94;100925.13;5136239;27;20224;-72
2022/04/19 09:13:22;;;;;;;4.07;3.53;;;;;;;10.39;46.29;100970.34;5144431;27;20198;-73
2022/04/19 09:15:49;;;;;;;3.20;2.53;;;;;;;10.40;47.46;100975.50;5144300;27;20603;-73
2022/04/19 09:18:24;;;;;;;2.90;2.67;;;;;;;10.48;45.96;100931.94;5147312;27;20201;-73
2022/04/19 09:20:52;;;;;;;2.40;2.20;;;;;;;10.58;44.73;100989.25;5147035;27;20298;-73
2022/04/19 09:23:18;;;;;;;2.97;2.17;;;;;;;10.64;42.98;101071.00;5145601;27;20198;-72
2022/04/19 09:25:45;;;;;;;2.10;2.00;;;;;;;10.70;44.11;101089.25;5145525;27;20239;-73
2022/04/19 09:28:18;;;;;;;2.57;2.37;;;;;;;10.78;44.06;101083.06;5146982;27;20194;-73
2022/04/19 09:30:45;;;;;;;3.13;2.00;;;;;;;10.85;47.01;101069.06;5145923;27;20220;-73
2022/04/19 09:33:14;;;;;;;2.03;1.40;;;;;;;10.91;44.82;101043.75;5144259;27;20206;-73
2022/04/19 09:35:43;;;;;;;2.10;1.73;;;;;;;11.03;45.22;101061.03;5143088;27;20187;-73
2022/04/19 09:38:10;;;;;;;2.83;2.40;;;;;;;11.08;44.02;101087.09;5145029;27;20192;-73
2022/04/19 09:40:38;;;;;;;3.27;1.80;;;;;;;11.22;44.66;101090.47;5142274;27;20219;-73
2022/04/19 09:43:10;;;;;;;1.93;1.83;;;;;;;11.28;42.59;101124.38;5147445;27;20655;-73
2022/04/19 09:45:56;;;;;;;2.40;2.20;;;;;;;11.31;41.26;101162.66;5141764;27;20200;-73
2022/04/19 09:48:25;;;;;;;2.17;2.07;;;;;;;11.33;40.54;101219.25;5144052;27;20657;-72
2022/04/19 09:50:53;;;;;;;1.77;1.67;;;;;;;11.31;39.42;101273.28;5144214;27;20210;-72
2022/04/19 09:53:22;;;;;;;1.80;1.70;;;;;;;11.30;40.46;101284.66;5146088;27;20201;-73
2022/04/19 09:55:49;;;;;;;1.97;1.80;;;;;;;11.36;40.12;101254.97;5145554;27;20221;-73
2022/04/19 09:58:16;;;;;;;1.63;1.53;;;;;;;11.43;42.60;101227.88;5141865;27;20203;-73
2022/04/19 10:00:44;;;;;;;1.67;1.57;;;;;;;11.48;39.33;101249.63;5145425;27;20219;-72
2022/04/19 10:08:41;;;;;;;1.40;1.30;;;;;;;11.78;39.69;101273.75;5142435;27;20238;-73
2022/04/19 10:11:10;;;;;;;1.73;1.63;;;;;;;11.90;40.37;101210.84;5144473;27;20287;-73
2022/04/19 10:13:39;;;;;;;1.73;1.60;;;;;;;12.08;39.77;101240.28;5141502;27;20268;-73
2022/04/19 10:16:11;;;;;;;2.30;2.10;;;;;;;12.21;41.03;101280.25;5146740;27;20195;-73
2022/04/19 10:18:39;;;;;;;2.30;2.10;;;;;;;12.31;39.51;101263.56;5141745;27;20529;-73
2022/04/19 10:21:09;;;;;;;1.85;1.75;;;;;;;12.38;39.07;101283.53;5143933;27;20477;-73
2022/04/19 10:23:36;;;;;;;2.30;2.10;;;;;;;12.41;41.31;101262.56;5145974;27;20192;-73
2022/04/19 10:26:17;;;;;;;1.90;1.80;;;;;;;12.51;40.96;101203.94;5144680;27;20246;-73
2022/04/19 10:28:45;;;;;;;2.13;1.80;;;;;;;12.56;39.92;101271.94;5143245;27;20201;-73
2022/04/19 10:31:12;;;;;;;1.73;1.60;;;;;;;12.55;42.21;101175.94;5143587;27;20240;-73
2022/04/19 10:33:49;;;;;;;2.40;2.00;;;;;;;12.61;42.93;101144.41;5142652;27;20199;-73
2022/04/19 10:36:17;;;;;;;2.60;2.40;;;;;;;12.77;41.35;101180.84;5146190;27;20200;-74
2022/04/19 10:38:45;;;;;;;3.00;2.60;;;;;;;12.83;40.97;101227.91;5144391;27;20674;-74
2022/04/19 10:41:11;;;;;;;3.20;2.90;;;;;;;12.88;39.42;101239.16;5145642;27;20229;-75
2022/04/19 10:43:38;;;;;;;2.57;2.23;;;;;;;12.88;41.36;101244.41;5145410;27;20260;-74
2022/04/19 10:46:20;;;;;;;3.33;3.00;;;;;;;13.00;39.58;101259.97;5145243;27;20217;-77
2022/04/19 10:49:24;;;;;;;4.83;3.40;;;;;;;13.04;41.12;101221.44;5145367;27;20210;-75
2022/04/19 10:51:52;;;;;;;2.83;2.63;;;;;;;13.08;41.04;101251.97;5144898;27;20301;-74
2022/04/19 10:55:03;;;;;;;3.33;2.57;;;;;;;13.21;39.50;101218.56;5140636;27;20255;-75
2022/04/19 11:00:27;;;;;;;2.90;2.63;;;;;;;13.45;40.44;101264.50;5141707;27;20753;-76
2022/04/19 11:03:00;;;;;;;3.27;3.07;;;;;;;13.47;40.04;101273.19;5143216;27;20624;-74
2022/04/19 11:05:42;;;;;;;3.07;2.87;;;;;;;13.59;40.28;101272.97;5146209;27;20285;-75
2022/04/19 11:08:32;;;;;;;3.57;3.27;;;;;;;13.82;41.35;101225.31;5143935;27;20204;-75
2022/04/19 11:11:21;;;;;;;3.87;3.30;;;;;;;13.98;39.09;101232.91;5140421;27;20702;-75
2022/04/19 11:14:20;;;;;;;4.37;3.80;;;;;;;13.96;37.06;101302.94;5143377;27;20273;-75
2022/04/19 11:16:51;;;;;;;3.67;3.37;;;;;;;14.04;37.57;101299.25;5142423;27;20202;-75
2022/04/19 11:19:19;;;;;;;3.80;3.50;;;;;;;14.13;37.48;101349.84;5140362;27;20193;-75
2022/04/19 11:21:56;;;;;;;3.93;3.60;;;;;;;14.19;39.87;101333.97;5142534;27;20249;-75
2022/04/19 11:25:00;;;;;;;4.70;3.87;;;;;;;14.50;38.76;101268.53;5142225;27;20226;-75
2022/04/19 11:28:00;;;;;;;3.67;3.37;;;;;;;14.77;36.21;101313.56;5144202;27;20201;-75
2022/04/19 11:30:27;;;;;;;3.40;3.10;;;;;;;15.07;34.58;101375.09;5141715;27;20285;-75
2022/04/19 11:32:55;;;;;;;3.20;3.00;;;;;;;16.05;32.99;101459.63;5143647;27;20209;-75
2022/04/19 11:35:21;;;;;;;2.63;2.40;;;;;;;17.66;30.54;101524.59;5143581;27;20315;-76
2022/04/19 11:37:50;;;;;;;4.10;2.87;;;;;;;19.57;27.55;101655.72;5145085;27;20272;-76
2022/04/19 11:48:37;;;;;;;3.13;2.93;;;;;;;25.18;20.90;101919.66;5139891;27;20224;-77
2022/04/19 11:51:08;;;;;;;3.17;2.90;;;;;;;25.89;20.63;101930.75;5142873;27;20309;-77
2022/04/19 11:53:36;;;;;;;3.37;3.10;;;;;;;26.60;19.01;101955.94;5139984;27;20205;-77
2022/04/19 11:56:03;;;;;;;2.67;2.47;;;;;;;27.36;19.26;101960.91;5142705;27;20306;-77
2022/04/19 11:58:30;;;;;;;2.30;2.10;;;;;;;27.79;19.67;101912.44;5147222;27;20195;-77
2022/04/19 12:00:58;;;;;;;2.57;2.40;;;;;;;28.79;17.71;101926.09;5143078;27;20322;-74
2022/04/19 12:03:27;;;;;;;2.30;2.20;;;;;;;29.89;17.06;101925.06;5142101;27;20688;-74
2022/04/19 12:05:54;;;;;;;2.30;2.20;;;;;;;30.31;16.04;101947.00;5143897;27;20750;-74
2022/04/19 12:08:31;;;;;;;2.50;2.30;;;;;;;30.03;18.09;101918.63;5143853;27;20202;-74
2022/04/19 12:11:01;;;;;;;2.57;2.37;;;;;;;30.69;16.73;101871.13;5141061;27;20219;-74
2022/04/19 12:13:27;;;;;;;3.10;2.70;;;;;;;31.84;15.42;101866.03;5141686;27;20568;-73
2022/04/19 12:15:54;;;;;;;3.30;3.00;;;;;;;32.02;13.26;101938.38;5143573;27;20198;-73
2022/04/19 12:18:31;;;;;;;3.30;3.10;;;;;;;32.26;13.45;101928.13;5143068;27;20716;-74
2022/04/19 12:20:58;;;;;;;2.80;2.67;;;;;;;32.18;14.71;101910.88;5140641;27;20249;-73